Archival Weather

General Ignacio P Garcia Intl

General Ignacio P Garcia Intl, Mexico (MMHO)

Report from: Wednesday, December 6, 2023 12:44 PM CST
Current time: Friday, February 23, 2024 1:51 PM CST

Current weather – Weather history – Daily summaries
Weather forecast

Temperature24.0°C (75.2°F)
Dew point-1.0°C (30.2°F)
Winds Calm
Visibility10 mi. (16.1 km)
Clouds Ceiling: Broken clouds 20,000 ft. (6,096 m)
Altimeter30.07 in.Hg (1018 mB)
Relative humidity19 %
Density altitude967 ft. (295 m)
Flight conditions Visual Meteorological Conditions
Raw dataMMHO 061844Z 00000KT 10SM BKN200 24/M01 A3007 RMK 8/008 ISOL AC HZY
An error has occurred. This application may no longer respond until reloaded. Reload 🗙